Airfield :
LOGIN :

Register | Disclaimer

   EN    FR    IT 

 










Legend :    VFR   Marginal VFR   IFR   Intensive IFR   Very Intensive IFR
Visi :
Ceiling :
>= 8 km
>= 3000ft
5 to 8 km
1000 to 3000 ft
1500m to 5 km
500 to 1000 ft
800 to 1500m
200 to 500 ft
< 800m
< 200 ft
Symbols :   Thunderstorms  Fog  Heavy snow  Heavy precipitations  Wind > 20 kt
SIGMETs :     Misc.  Thunderstorms  Icing  Turbulence  Mountain Waves  Volcanic Ashes






- Airport Elevation : 289 ft


LFYR - Romorantin Pruniers

CURRENT METAR :
  • 131100Z AUTO 27015KT 230V310 9999 BKN037 OVC044 10/03 Q0992 TEMPO 25030G45KT 3000 TSRA BKN020CB

EXPIRED METARs :
  • 131030Z AUTO 26014G27KT 220V300 9999 SCT037 SCT049 BKN092 09/03 Q0991 TEMPO 25030G45KT 3000 TSRA BKN020CB
  • 131000Z AUTO 27011KT 220V310 9999 FEW039 SCT045 09/03 Q0991 TEMPO 25030G45KT 3000 TSRA BKN020CB
  • 130930Z AUTO 27013KT 230V300 9999 SCT031 BKN037 BKN045 08/04 Q0991 TEMPO 25030G45KT 3000 TSRA BKN020CB
  • 130900Z AUTO 26013KT 230V300 9999 FEW034 BKN098 09/03 Q0990 TEMPO 25030G45KT 3000 TSRA BKN020CB
  • 130830Z AUTO 26012G25KT 220V320 9999 FEW038 08/03 Q0989 TEMPO 25030G45KT 3000 TSRA BKN020CB
  • 130800Z AUTO 27013G24KT 230V310 9999 FEW030 08/03 Q0988 TEMPO 25030G45KT 3000 TSRA BKN020CB

Expired Forecast.



MET'MAP, your aeronautical weather chart ! - Copyright ORBIFLY December 2007 - Disclaimer

ORBIFLY MET'MAP TEAM :

Programming & Development : Alexandra Zaïnal
Concept & original design : Baudouin d'Aumeries
Assistance for programming : Marc-Olivier Méhu
Technical & hardware support : Manuel Goepfert

Contact : metmap@orbifly.com




SOURCES & CREDITS :

   NOAA